PWSweather.com
Personal Weather Stations
Station Observations
KCAEXETE14
Park Place, Exeter, CA 93221

Park PlaceExeter, CA 93221

Lat: 36.283487, Lon: -119.152218

Elevation: 380

Station Type: Davis Vantage Vue

http://weather.manyjourneys.com/

Latest ConditionsUpdated 6:15:00 PM PDT Saturday, Jul 20, 2019
Currently Today's Max Today's Min Today's Average
Temperature 92.9°F33.8°C 93.9°F34.4°C 63.3°F17.4°C 78.2°F25.7°C
Dew Point 62.0°F16.7°C 67.0°F19.4°C 51.3°F10.7°C 58.5°F14.7°C
Winds 2.3 mph NW3.7 kmh NW 3.5 mph -5.6 kmh - - 0.7 mph 1.1 kmh
Wind Gusts 3.5 mph5.6 kmh 9.2 mph14.8 kmh - -
Humidity 36% 69% 33% 52%
Pressure 29.73 in1006.8 mb 29.87 in1011.5 mb 29.73 in1006.8 mb -
Hour Temp Dew Point Humidity Winds Wind Gusts Pressure Precip Precip Rate Daily Precip Total
06:15 PM 92.9°F33.8°C 62.0°F16.7°C 36% 2.3 mph NW3.7 kmh NW 3.5 mph5.6 kmh 29.73 in1006.8 mb - 0.00 in0.0 mm 0.00 in0.0 mm
06:10 PM 92.9°F33.8°C 62.8°F17.1°C 37% 1.2 mph NW1.9 kmh NW 3.5 mph5.6 kmh 29.73 in1006.8 mb - 0.00 in0.0 mm 0.00 in0.0 mm
06:05 PM 93.1°F33.9°C 62.2°F16.8°C 36% 2.3 mph NW3.7 kmh NW 3.5 mph5.6 kmh 29.73 in1006.8 mb - 0.00 in0.0 mm 0.00 in0.0 mm
06:00 PM 93.1°F33.9°C 62.2°F16.8°C 36% 1.2 mph NW1.9 kmh NW 2.3 mph3.7 kmh 29.73 in1006.8 mb - 0.00 in0.0 mm 0.00 in0.0 mm
05:55 PM 93.4°F34.1°C 62.4°F16.9°C 36% 2.3 mph NW3.7 kmh NW 3.5 mph5.6 kmh 29.73 in1006.8 mb - 0.00 in0.0 mm 0.00 in0.0 mm
05:50 PM 93.4°F34.1°C 63.2°F17.3°C 37% 1.2 mph WNW1.9 kmh WNW 1.2 mph1.9 kmh 29.73 in1006.8 mb - 0.00 in0.0 mm 0.00 in0.0 mm
05:45 PM 93.7°F34.3°C 61.9°F16.6°C 35% 2.3 mph NW3.7 kmh NW 3.5 mph5.6 kmh 29.74 in1007.1 mb - 0.00 in0.0 mm 0.00 in0.0 mm
05:40 PM 93.9°F34.4°C 63.7°F17.6°C 37% Calm Calm 3.5 mph5.6 kmh 29.74 in1007.1 mb - 0.00 in0.0 mm 0.00 in0.0 mm
05:35 PM 93.4°F34.1°C 63.2°F17.3°C 37% 1.2 mph W1.9 kmh W 2.3 mph3.7 kmh 29.74 in1007.1 mb - 0.00 in0.0 mm 0.00 in0.0 mm
05:30 PM 93.4°F34.1°C 62.4°F16.9°C 36% 1.2 mph NW1.9 kmh NW 3.5 mph5.6 kmh 29.74 in1007.1 mb - 0.00 in0.0 mm 0.00 in0.0 mm
05:25 PM 93.5°F34.2°C 62.5°F16.9°C 36% 1.2 mph NW1.9 kmh NW 3.5 mph5.6 kmh 29.74 in1007.1 mb - 0.00 in0.0 mm 0.00 in0.0 mm
05:20 PM 93.6°F34.2°C 62.6°F17.0°C 36% 1.2 mph NW1.9 kmh NW 3.5 mph5.6 kmh 29.74 in1007.1 mb - 0.00 in0.0 mm 0.00 in0.0 mm
05:15 PM 93.4°F34.1°C 62.4°F16.9°C 36% 1.2 mph WNW1.9 kmh WNW 2.3 mph3.7 kmh 29.74 in1007.1 mb - 0.00 in0.0 mm 0.00 in0.0 mm
05:10 PM 93.4°F34.1°C 62.5°F16.9°C 36% 1.2 mph NW1.9 kmh NW 3.5 mph5.6 kmh 29.74 in1007.1 mb - 0.00 in0.0 mm 0.00 in0.0 mm
05:05 PM 93.4°F34.1°C 62.5°F16.9°C 36% 1.2 mph NW1.9 kmh NW 2.3 mph3.7 kmh 29.74 in1007.1 mb - 0.00 in0.0 mm 0.00 in0.0 mm
05:00 PM 93.5°F34.2°C 63.3°F17.4°C 37% 1.2 mph NW1.9 kmh NW 3.5 mph5.6 kmh 29.74 in1007.1 mb - 0.00 in0.0 mm 0.00 in0.0 mm
04:55 PM 93.4°F34.1°C 63.2°F17.3°C 37% 2.3 mph NNW3.7 kmh NNW 3.5 mph5.6 kmh 29.75 in1007.5 mb - 0.00 in0.0 mm 0.00 in0.0 mm
04:50 PM 93.1°F33.9°C 62.2°F16.8°C 36% 1.2 mph NW1.9 kmh NW 2.3 mph3.7 kmh 29.75 in1007.5 mb - 0.00 in0.0 mm 0.00 in0.0 mm
04:45 PM 93.0°F33.9°C 62.1°F16.7°C 36% 2.3 mph NW3.7 kmh NW 3.5 mph5.6 kmh 29.75 in1007.5 mb - 0.00 in0.0 mm 0.00 in0.0 mm
04:40 PM 92.8°F33.8°C 61.1°F16.2°C 35% 2.3 mph NNW3.7 kmh NNW 3.5 mph5.6 kmh 29.75 in1007.5 mb - 0.00 in0.0 mm 0.00 in0.0 mm
04:35 PM 93.1°F33.9°C 61.4°F16.3°C 35% 2.3 mph NW3.7 kmh NW 3.5 mph5.6 kmh 29.75 in1007.5 mb - 0.00 in0.0 mm 0.00 in0.0 mm
04:30 PM 92.9°F33.8°C 62.0°F16.7°C 36% 1.2 mph NW1.9 kmh NW 3.5 mph5.6 kmh 29.75 in1007.5 mb - 0.00 in0.0 mm 0.00 in0.0 mm
04:25 PM 93.0°F33.9°C 62.1°F16.7°C 36% 2.3 mph NW3.7 kmh NW 3.5 mph5.6 kmh 29.75 in1007.5 mb - 0.00 in0.0 mm 0.00 in0.0 mm
04:20 PM 92.9°F33.8°C 62.8°F17.1°C 37% 2.3 mph NW3.7 kmh NW 3.5 mph5.6 kmh 29.75 in1007.5 mb - 0.00 in0.0 mm 0.00 in0.0 mm
04:15 PM 92.7°F33.7°C 61.0°F16.1°C 35% 2.3 mph NW3.7 kmh NW 3.5 mph5.6 kmh 29.75 in1007.5 mb - 0.00 in0.0 mm 0.00 in0.0 mm
04:10 PM 92.5°F33.6°C 60.9°F16.1°C 35% Calm Calm -- 29.76 in1007.8 mb - 0.00 in0.0 mm 0.00 in0.0 mm
04:05 PM 92.3°F33.5°C 61.5°F16.4°C 36% 2.3 mph NW3.7 kmh NW 3.5 mph5.6 kmh 29.76 in1007.8 mb - 0.00 in0.0 mm 0.00 in0.0 mm
04:00 PM 92.0°F33.3°C 58.8°F14.9°C 33% 2.3 mph NW3.7 kmh NW 3.5 mph5.6 kmh 29.76 in1007.8 mb - 0.00 in0.0 mm 0.00 in0.0 mm
03:55 PM 92.0°F33.3°C 61.2°F16.2°C 36% 1.2 mph WNW1.9 kmh WNW 3.5 mph5.6 kmh 29.76 in1007.8 mb - 0.00 in0.0 mm 0.00 in0.0 mm
03:50 PM 92.3°F33.5°C 63.0°F17.2°C 38% 2.3 mph NW3.7 kmh NW 5.8 mph9.3 kmh 29.76 in1007.8 mb - 0.00 in0.0 mm 0.00 in0.0 mm
03:45 PM 92.5°F33.6°C 64.6°F18.1°C 40% 3.5 mph NW5.6 kmh NW 4.6 mph7.4 kmh 29.77 in1008.1 mb - 0.00 in0.0 mm 0.00 in0.0 mm
03:40 PM 92.0°F33.3°C 63.5°F17.5°C 39% Calm Calm 3.5 mph5.6 kmh 29.77 in1008.1 mb - 0.00 in0.0 mm 0.00 in0.0 mm
03:35 PM 92.3°F33.5°C 63.7°F17.6°C 39% 1.2 mph NW1.9 kmh NW 2.3 mph3.7 kmh 29.77 in1008.1 mb - 0.00 in0.0 mm 0.00 in0.0 mm
03:30 PM 92.0°F33.3°C 62.8°F17.1°C 38% 2.3 mph NW3.7 kmh NW 5.8 mph9.3 kmh 29.77 in1008.1 mb - 0.00 in0.0 mm 0.00 in0.0 mm
03:25 PM 91.8°F33.2°C 63.3°F17.4°C 39% 1.2 mph NW1.9 kmh NW 3.5 mph5.6 kmh 29.77 in1008.1 mb - 0.00 in0.0 mm 0.00 in0.0 mm
03:20 PM 92.1°F33.4°C 63.6°F17.6°C 39% 2.3 mph NW3.7 kmh NW 3.5 mph5.6 kmh 29.77 in1008.1 mb - 0.00 in0.0 mm 0.00 in0.0 mm
03:15 PM 91.9°F33.3°C 63.4°F17.4°C 39% 1.2 mph NNW1.9 kmh NNW 3.5 mph5.6 kmh 29.78 in1008.5 mb - 0.00 in0.0 mm 0.00 in0.0 mm
03:10 PM 91.3°F32.9°C 62.9°F17.2°C 39% 2.3 mph NW3.7 kmh NW 3.5 mph5.6 kmh 29.78 in1008.5 mb - 0.00 in0.0 mm 0.00 in0.0 mm
03:05 PM 91.0°F32.8°C 62.6°F17.0°C 39% 2.3 mph NW3.7 kmh NW 5.8 mph9.3 kmh 29.78 in1008.5 mb - 0.00 in0.0 mm 0.00 in0.0 mm
03:00 PM 91.1°F32.8°C 62.7°F17.1°C 39% 2.3 mph WNW3.7 kmh WNW 6.9 mph11.1 kmh 29.78 in1008.5 mb - 0.00 in0.0 mm 0.00 in0.0 mm
02:55 PM 91.2°F32.9°C 62.0°F16.7°C 38% 2.3 mph NW3.7 kmh NW 4.6 mph7.4 kmh 29.78 in1008.5 mb - 0.00 in0.0 mm 0.00 in0.0 mm
02:50 PM 91.4°F33.0°C 62.2°F16.8°C 38% 3.5 mph NW5.6 kmh NW 6.9 mph11.1 kmh 29.79 in1008.8 mb - 0.00 in0.0 mm 0.00 in0.0 mm
02:45 PM 91.3°F32.9°C 62.9°F17.2°C 39% 2.3 mph NW3.7 kmh NW 4.6 mph7.4 kmh 29.79 in1008.8 mb - 0.00 in0.0 mm 0.00 in0.0 mm
02:40 PM 91.4°F33.0°C 62.9°F17.2°C 39% 3.5 mph NW5.6 kmh NW 9.2 mph14.8 kmh 29.79 in1008.8 mb - 0.00 in0.0 mm 0.00 in0.0 mm
02:35 PM 91.8°F33.2°C 63.3°F17.4°C 39% 1.2 mph WNW1.9 kmh WNW 3.5 mph5.6 kmh 29.79 in1008.8 mb - 0.00 in0.0 mm 0.00 in0.0 mm
02:30 PM 92.0°F33.3°C 63.5°F17.5°C 39% Calm Calm 3.5 mph5.6 kmh 29.79 in1008.8 mb - 0.00 in0.0 mm 0.00 in0.0 mm
02:25 PM 91.6°F33.1°C 62.4°F16.9°C 38% 1.2 mph N1.9 kmh N 1.2 mph1.9 kmh 29.79 in1008.8 mb - 0.00 in0.0 mm 0.00 in0.0 mm
02:20 PM 91.7°F33.2°C 63.2°F17.3°C 39% 1.2 mph NW1.9 kmh NW 2.3 mph3.7 kmh 29.79 in1008.8 mb - 0.00 in0.0 mm 0.00 in0.0 mm
02:15 PM 91.8°F33.2°C 62.6°F17.0°C 38% 1.2 mph NW1.9 kmh NW 1.2 mph1.9 kmh 29.79 in1008.8 mb - 0.00 in0.0 mm 0.00 in0.0 mm
02:10 PM 91.2°F32.9°C 64.9°F18.3°C 42% 1.2 mph SE1.9 kmh SE 3.5 mph5.6 kmh 29.80 in1009.1 mb - 0.00 in0.0 mm 0.00 in0.0 mm
02:05 PM 91.1°F32.8°C 62.7°F17.1°C 39% 2.3 mph NW3.7 kmh NW 5.8 mph9.3 kmh 29.80 in1009.1 mb - 0.00 in0.0 mm 0.00 in0.0 mm
02:00 PM 90.9°F32.7°C 63.9°F17.7°C 41% Calm Calm 3.5 mph5.6 kmh 29.80 in1009.1 mb - 0.00 in0.0 mm 0.00 in0.0 mm
01:55 PM 90.8°F32.7°C 63.2°F17.3°C 40% 1.2 mph NW1.9 kmh NW 3.5 mph5.6 kmh 29.80 in1009.1 mb - 0.00 in0.0 mm 0.00 in0.0 mm
01:50 PM 90.9°F32.7°C 64.6°F18.1°C 42% 1.2 mph SE1.9 kmh SE 1.2 mph1.9 kmh 29.80 in1009.1 mb - 0.00 in0.0 mm 0.00 in0.0 mm
01:45 PM 90.4°F32.4°C 62.8°F17.1°C 40% 1.2 mph WSW1.9 kmh WSW 2.3 mph3.7 kmh 29.81 in1009.5 mb - 0.00 in0.0 mm 0.00 in0.0 mm
01:40 PM 90.5°F32.5°C 63.6°F17.6°C 41% Calm Calm 2.3 mph3.7 kmh 29.81 in1009.5 mb - 0.00 in0.0 mm 0.00 in0.0 mm
01:35 PM 89.9°F32.2°C 65.1°F18.4°C 44% Calm Calm 2.3 mph3.7 kmh 29.81 in1009.5 mb - 0.00 in0.0 mm 0.00 in0.0 mm
01:30 PM 89.7°F32.1°C 64.2°F17.9°C 43% 1.2 mph ESE1.9 kmh ESE 2.3 mph3.7 kmh 29.82 in1009.8 mb - 0.00 in0.0 mm 0.00 in0.0 mm
01:25 PM 89.5°F31.9°C 63.4°F17.4°C 42% Calm Calm 1.2 mph1.9 kmh 29.82 in1009.8 mb - 0.00 in0.0 mm 0.00 in0.0 mm
01:20 PM 89.0°F31.7°C 63.6°F17.6°C 43% Calm Calm 1.2 mph1.9 kmh 29.82 in1009.8 mb - 0.00 in0.0 mm 0.00 in0.0 mm
01:15 PM 89.1°F31.7°C 64.3°F17.9°C 44% 1.2 mph NW1.9 kmh NW 2.3 mph3.7 kmh 29.82 in1009.8 mb - 0.00 in0.0 mm 0.00 in0.0 mm
01:10 PM 88.9°F31.6°C 64.2°F17.9°C 44% 1.2 mph SE1.9 kmh SE 2.3 mph3.7 kmh 29.82 in1009.8 mb - 0.00 in0.0 mm 0.00 in0.0 mm
01:05 PM 88.6°F31.4°C 63.9°F17.7°C 44% Calm Calm 2.3 mph3.7 kmh 29.83 in1010.2 mb - 0.00 in0.0 mm 0.00 in0.0 mm
01:00 PM 88.3°F31.3°C 63.6°F17.6°C 44% 1.2 mph W1.9 kmh W 2.3 mph3.7 kmh 29.83 in1010.2 mb - 0.00 in0.0 mm 0.00 in0.0 mm
12:55 PM 87.4°F30.8°C 64.1°F17.8°C 46% Calm Calm 1.2 mph1.9 kmh 29.83 in1010.2 mb - 0.00 in0.0 mm 0.00 in0.0 mm
12:50 PM 87.4°F30.8°C 63.5°F17.5°C 45% 1.2 mph NW1.9 kmh NW 3.5 mph5.6 kmh 29.84 in1010.5 mb - 0.00 in0.0 mm 0.00 in0.0 mm
12:45 PM 87.1°F30.6°C 63.8°F17.7°C 46% 1.2 mph NW1.9 kmh NW 2.3 mph3.7 kmh 29.84 in1010.5 mb - 0.00 in0.0 mm 0.00 in0.0 mm
12:40 PM 86.8°F30.4°C 64.8°F18.2°C 48% 1.2 mph WNW1.9 kmh WNW 3.5 mph5.6 kmh 29.84 in1010.5 mb - 0.00 in0.0 mm 0.00 in0.0 mm
12:35 PM 86.6°F30.3°C 63.3°F17.4°C 46% 1.2 mph W1.9 kmh W 3.5 mph5.6 kmh 29.84 in1010.5 mb - 0.00 in0.0 mm 0.00 in0.0 mm
12:30 PM 86.6°F30.3°C 64.0°F17.8°C 47% 1.2 mph NW1.9 kmh NW 2.3 mph3.7 kmh 29.84 in1010.5 mb - 0.00 in0.0 mm 0.00 in0.0 mm
12:25 PM 86.5°F30.3°C 65.1°F18.4°C 49% Calm Calm 2.3 mph3.7 kmh 29.84 in1010.5 mb - 0.00 in0.0 mm 0.00 in0.0 mm
12:20 PM 86.2°F30.1°C 63.6°F17.6°C 47% 3.5 mph NW5.6 kmh NW 3.5 mph5.6 kmh 29.84 in1010.5 mb - 0.00 in0.0 mm 0.00 in0.0 mm
12:15 PM 86.1°F30.1°C 65.3°F18.5°C 50% Calm Calm 2.3 mph3.7 kmh 29.84 in1010.5 mb - 0.00 in0.0 mm 0.00 in0.0 mm
12:10 PM 86.0°F30.0°C 66.8°F19.3°C 53% Calm Calm 1.2 mph1.9 kmh 29.84 in1010.5 mb - 0.00 in0.0 mm 0.00 in0.0 mm
12:05 PM 85.7°F29.8°C 66.1°F18.9°C 52% Calm Calm 2.3 mph3.7 kmh 29.85 in1010.8 mb - 0.00 in0.0 mm 0.00 in0.0 mm
12:00 PM 85.5°F29.7°C 67.0°F19.4°C 54% Calm Calm 2.3 mph3.7 kmh 29.85 in1010.8 mb - 0.00 in0.0 mm 0.00 in0.0 mm
11:55 AM 84.8°F29.3°C 64.6°F18.1°C 51% Calm Calm 1.2 mph1.9 kmh 29.85 in1010.8 mb - 0.00 in0.0 mm 0.00 in0.0 mm
11:50 AM 85.3°F29.6°C 65.7°F18.7°C 52% 1.2 mph NW1.9 kmh NW 3.5 mph5.6 kmh 29.85 in1010.8 mb - 0.00 in0.0 mm 0.00 in0.0 mm
11:45 AM 85.5°F29.7°C 66.9°F19.4°C 54% Calm Calm -- 29.85 in1010.8 mb - 0.00 in0.0 mm 0.00 in0.0 mm
11:40 AM 84.9°F29.4°C 65.3°F18.5°C 52% 1.2 mph S1.9 kmh S 2.3 mph3.7 kmh 29.85 in1010.8 mb - 0.00 in0.0 mm 0.00 in0.0 mm
11:30 AM 83.8°F28.8°C 65.4°F18.6°C 54% Calm Calm 3.5 mph5.6 kmh 29.86 in1011.2 mb - 0.00 in0.0 mm 0.00 in0.0 mm
11:25 AM 83.6°F28.7°C 65.2°F18.4°C 54% Calm Calm -- 29.86 in1011.2 mb - 0.00 in0.0 mm 0.00 in0.0 mm
11:20 AM 83.3°F28.5°C 64.9°F18.3°C 54% Calm Calm 3.5 mph5.6 kmh 29.86 in1011.2 mb - 0.00 in0.0 mm 0.00 in0.0 mm
11:15 AM 83.2°F28.4°C 66.4°F19.1°C 57% 1.2 mph SE1.9 kmh SE 2.3 mph3.7 kmh 29.86 in1011.2 mb - 0.00 in0.0 mm 0.00 in0.0 mm
11:10 AM 82.9°F28.3°C 64.6°F18.1°C 54% Calm Calm 1.2 mph1.9 kmh 29.86 in1011.2 mb - 0.00 in0.0 mm 0.00 in0.0 mm
11:05 AM 82.8°F28.2°C 64.9°F18.3°C 55% 1.2 mph ESE1.9 kmh ESE 3.5 mph5.6 kmh 29.86 in1011.2 mb - 0.00 in0.0 mm 0.00 in0.0 mm
11:00 AM 82.1°F27.8°C 64.8°F18.2°C 56% 1.2 mph SE1.9 kmh SE 3.5 mph5.6 kmh 29.86 in1011.2 mb - 0.00 in0.0 mm 0.00 in0.0 mm
10:55 AM 82.4°F28.0°C 64.6°F18.1°C 55% 1.2 mph NW1.9 kmh NW 1.2 mph1.9 kmh 29.86 in1011.2 mb - 0.00 in0.0 mm 0.00 in0.0 mm
10:50 AM 82.1°F27.8°C 64.3°F17.9°C 55% Calm Calm 1.2 mph1.9 kmh 29.86 in1011.2 mb - 0.00 in0.0 mm 0.00 in0.0 mm
10:45 AM 82.1°F27.8°C 64.4°F18.0°C 55% 1.2 mph N1.9 kmh N 1.2 mph1.9 kmh 29.86 in1011.2 mb - 0.00 in0.0 mm 0.00 in0.0 mm
10:40 AM 81.8°F27.7°C 64.0°F17.8°C 55% Calm Calm 1.2 mph1.9 kmh 29.86 in1011.2 mb - 0.00 in0.0 mm 0.00 in0.0 mm
10:35 AM 81.3°F27.4°C 64.6°F18.1°C 57% Calm Calm 1.2 mph1.9 kmh 29.86 in1011.2 mb - 0.00 in0.0 mm 0.00 in0.0 mm
10:30 AM 80.9°F27.2°C 64.2°F17.9°C 57% 1.2 mph SW1.9 kmh SW 3.5 mph5.6 kmh 29.86 in1011.2 mb - 0.00 in0.0 mm 0.00 in0.0 mm
10:25 AM 80.6°F27.0°C 64.0°F17.8°C 57% Calm Calm 1.2 mph1.9 kmh 29.86 in1011.2 mb - 0.00 in0.0 mm 0.00 in0.0 mm
10:20 AM 80.8°F27.1°C 63.6°F17.6°C 56% Calm Calm 1.2 mph1.9 kmh 29.86 in1011.2 mb - 0.00 in0.0 mm 0.00 in0.0 mm
10:15 AM 80.4°F26.9°C 63.3°F17.4°C 56% 1.2 mph NNW1.9 kmh NNW 1.2 mph1.9 kmh 29.86 in1011.2 mb - 0.00 in0.0 mm 0.00 in0.0 mm
10:10 AM 80.8°F27.1°C 63.1°F17.3°C 55% 1.2 mph NW1.9 kmh NW 3.5 mph5.6 kmh 29.86 in1011.2 mb - 0.00 in0.0 mm 0.00 in0.0 mm
10:05 AM 81.2°F27.3°C 63.0°F17.2°C 54% 1.2 mph NW1.9 kmh NW 3.5 mph5.6 kmh 29.86 in1011.2 mb - 0.00 in0.0 mm 0.00 in0.0 mm
10:00 AM 80.9°F27.2°C 63.2°F17.3°C 55% Calm Calm 1.2 mph1.9 kmh 29.86 in1011.2 mb - 0.00 in0.0 mm 0.00 in0.0 mm
09:55 AM 80.4°F26.9°C 63.2°F17.3°C 56% Calm Calm -- 29.86 in1011.2 mb - 0.00 in0.0 mm 0.00 in0.0 mm
09:50 AM 80.2°F26.8°C 62.6°F17.0°C 55% 1.2 mph S1.9 kmh S 3.5 mph5.6 kmh 29.86 in1011.2 mb - 0.00 in0.0 mm 0.00 in0.0 mm
09:45 AM 79.8°F26.6°C 62.2°F16.8°C 55% 1.2 mph S1.9 kmh S 3.5 mph5.6 kmh 29.87 in1011.5 mb - 0.00 in0.0 mm 0.00 in0.0 mm
09:40 AM 79.5°F26.4°C 61.4°F16.3°C 54% Calm Calm 1.2 mph1.9 kmh 29.87 in1011.5 mb - 0.00 in0.0 mm 0.00 in0.0 mm
09:35 AM 79.2°F26.2°C 61.6°F16.4°C 55% Calm Calm 2.3 mph3.7 kmh 29.87 in1011.5 mb - 0.00 in0.0 mm 0.00 in0.0 mm
09:30 AM 79.0°F26.1°C 60.9°F16.1°C 54% 1.2 mph SE1.9 kmh SE 4.6 mph7.4 kmh 29.86 in1011.2 mb - 0.00 in0.0 mm 0.00 in0.0 mm
09:25 AM 78.8°F26.0°C 60.7°F15.9°C 54% Calm Calm 2.3 mph3.7 kmh 29.87 in1011.5 mb - 0.00 in0.0 mm 0.00 in0.0 mm
09:20 AM 78.3°F25.7°C 59.7°F15.4°C 53% 1.2 mph S1.9 kmh S 3.5 mph5.6 kmh 29.87 in1011.5 mb - 0.00 in0.0 mm 0.00 in0.0 mm
09:15 AM 77.9°F25.5°C 59.4°F15.2°C 53% Calm Calm 3.5 mph5.6 kmh 29.87 in1011.5 mb - 0.00 in0.0 mm 0.00 in0.0 mm
09:10 AM 77.7°F25.4°C 59.8°F15.4°C 54% 1.2 mph SSE1.9 kmh SSE 4.6 mph7.4 kmh 29.87 in1011.5 mb - 0.00 in0.0 mm 0.00 in0.0 mm
09:05 AM 77.4°F25.2°C 60.0°F15.6°C 55% 1.2 mph SE1.9 kmh SE 3.5 mph5.6 kmh 29.87 in1011.5 mb - 0.00 in0.0 mm 0.00 in0.0 mm
09:00 AM 77.0°F25.0°C 60.1°F15.6°C 56% 1.2 mph SSE1.9 kmh SSE 1.2 mph1.9 kmh 29.87 in1011.5 mb - 0.00 in0.0 mm 0.00 in0.0 mm
08:55 AM 76.4°F24.7°C 59.6°F15.3°C 56% Calm Calm 1.2 mph1.9 kmh 29.87 in1011.5 mb - 0.00 in0.0 mm 0.00 in0.0 mm
08:50 AM 76.1°F24.5°C 59.8°F15.4°C 57% 1.2 mph SE1.9 kmh SE 2.3 mph3.7 kmh 29.87 in1011.5 mb - 0.00 in0.0 mm 0.00 in0.0 mm
08:45 AM 75.7°F24.3°C 58.4°F14.7°C 55% 1.2 mph S1.9 kmh S 3.5 mph5.6 kmh 29.87 in1011.5 mb - 0.00 in0.0 mm 0.00 in0.0 mm
08:40 AM 75.3°F24.1°C 58.5°F14.7°C 56% 1.2 mph ESE1.9 kmh ESE 2.3 mph3.7 kmh 29.87 in1011.5 mb - 0.00 in0.0 mm 0.00 in0.0 mm
08:35 AM 74.6°F23.7°C 58.4°F14.7°C 57% 1.2 mph SE1.9 kmh SE 3.5 mph5.6 kmh 29.87 in1011.5 mb - 0.00 in0.0 mm 0.00 in0.0 mm
08:30 AM 74.3°F23.5°C 57.6°F14.2°C 56% 1.2 mph E1.9 kmh E 2.3 mph3.7 kmh 29.87 in1011.5 mb - 0.00 in0.0 mm 0.00 in0.0 mm
08:25 AM 73.8°F23.2°C 57.6°F14.2°C 57% Calm Calm 3.5 mph5.6 kmh 29.87 in1011.5 mb - 0.00 in0.0 mm 0.00 in0.0 mm
08:20 AM 73.5°F23.1°C 56.8°F13.8°C 56% 1.2 mph SSE1.9 kmh SSE 3.5 mph5.6 kmh 29.87 in1011.5 mb - 0.00 in0.0 mm 0.00 in0.0 mm
08:15 AM 73.2°F22.9°C 57.6°F14.2°C 58% 1.2 mph SSE1.9 kmh SSE 3.5 mph5.6 kmh 29.86 in1011.2 mb - 0.00 in0.0 mm 0.00 in0.0 mm
08:10 AM 72.8°F22.7°C 56.6°F13.7°C 57% Calm Calm 2.3 mph3.7 kmh 29.87 in1011.5 mb - 0.00 in0.0 mm 0.00 in0.0 mm
08:05 AM 72.3°F22.4°C 56.7°F13.7°C 58% 1.2 mph E1.9 kmh E 3.5 mph5.6 kmh 29.87 in1011.5 mb - 0.00 in0.0 mm 0.00 in0.0 mm
08:00 AM 72.1°F22.3°C 56.5°F13.6°C 58% 2.3 mph SSE3.7 kmh SSE 3.5 mph5.6 kmh 29.86 in1011.2 mb - 0.00 in0.0 mm 0.00 in0.0 mm
07:55 AM 71.8°F22.1°C 56.2°F13.4°C 58% 1.2 mph SE1.9 kmh SE 3.5 mph5.6 kmh 29.86 in1011.2 mb - 0.00 in0.0 mm 0.00 in0.0 mm
07:50 AM 71.4°F21.9°C 56.7°F13.7°C 60% 1.2 mph SSE1.9 kmh SSE 3.5 mph5.6 kmh 29.86 in1011.2 mb - 0.00 in0.0 mm 0.00 in0.0 mm
07:45 AM 70.7°F21.5°C 56.1°F13.4°C 60% Calm Calm 1.2 mph1.9 kmh 29.86 in1011.2 mb - 0.00 in0.0 mm 0.00 in0.0 mm
07:40 AM 70.2°F21.2°C 55.7°F13.2°C 60% 1.2 mph ESE1.9 kmh ESE 3.5 mph5.6 kmh 29.86 in1011.2 mb - 0.00 in0.0 mm 0.00 in0.0 mm
07:35 AM 69.8°F21.0°C 54.8°F12.7°C 59% Calm Calm 2.3 mph3.7 kmh 29.86 in1011.2 mb - 0.00 in0.0 mm 0.00 in0.0 mm
07:30 AM 69.5°F20.8°C 54.5°F12.5°C 59% 1.2 mph E1.9 kmh E 2.3 mph3.7 kmh 29.86 in1011.2 mb - 0.00 in0.0 mm 0.00 in0.0 mm
07:25 AM 69.1°F20.6°C 53.7°F12.1°C 58% Calm Calm -- 29.86 in1011.2 mb - 0.00 in0.0 mm 0.00 in0.0 mm
07:20 AM 69.0°F20.6°C 53.6°F12.0°C 58% 1.2 mph ESE1.9 kmh ESE 3.5 mph5.6 kmh 29.86 in1011.2 mb - 0.00 in0.0 mm 0.00 in0.0 mm
07:15 AM 68.5°F20.3°C 53.6°F12.0°C 59% Calm Calm 1.2 mph1.9 kmh 29.86 in1011.2 mb - 0.00 in0.0 mm 0.00 in0.0 mm
07:10 AM 67.7°F19.8°C 53.8°F12.1°C 61% Calm Calm 1.2 mph1.9 kmh 29.86 in1011.2 mb - 0.00 in0.0 mm 0.00 in0.0 mm
07:05 AM 66.7°F19.3°C 53.7°F12.1°C 63% Calm Calm 1.2 mph1.9 kmh 29.85 in1010.8 mb - 0.00 in0.0 mm 0.00 in0.0 mm
07:00 AM 65.5°F18.6°C 53.0°F11.7°C 64% Calm Calm -- 29.85 in1010.8 mb - 0.00 in0.0 mm 0.00 in0.0 mm
06:55 AM 64.8°F18.2°C 52.7°F11.5°C 65% Calm Calm 1.2 mph1.9 kmh 29.85 in1010.8 mb - 0.00 in0.0 mm 0.00 in0.0 mm
06:50 AM 64.4°F18.0°C 52.8°F11.6°C 66% Calm Calm -- 29.85 in1010.8 mb - 0.00 in0.0 mm 0.00 in0.0 mm
06:45 AM 64.1°F17.8°C 52.5°F11.4°C 66% Calm Calm -- 29.85 in1010.8 mb - 0.00 in0.0 mm 0.00 in0.0 mm
06:40 AM 63.9°F17.7°C 52.3°F11.3°C 66% Calm Calm -- 29.85 in1010.8 mb - 0.00 in0.0 mm 0.00 in0.0 mm
06:35 AM 63.7°F17.6°C 52.5°F11.4°C 67% Calm Calm 1.2 mph1.9 kmh 29.85 in1010.8 mb - 0.00 in0.0 mm 0.00 in0.0 mm
06:30 AM 63.5°F17.5°C 52.3°F11.3°C 67% Calm Calm -- 29.85 in1010.8 mb - 0.00 in0.0 mm 0.00 in0.0 mm
06:25 AM 63.4°F17.4°C 52.7°F11.5°C 68% Calm Calm -- 29.85 in1010.8 mb - 0.00 in0.0 mm 0.00 in0.0 mm
06:20 AM 63.4°F17.4°C 52.7°F11.5°C 68% Calm Calm 1.2 mph1.9 kmh 29.84 in1010.5 mb - 0.00 in0.0 mm 0.00 in0.0 mm
06:15 AM 63.5°F17.5°C 52.3°F11.3°C 67% Calm Calm -- 29.84 in1010.5 mb - 0.00 in0.0 mm 0.00 in0.0 mm
06:10 AM 63.6°F17.6°C 52.4°F11.3°C 67% Calm Calm -- 29.84 in1010.5 mb - 0.00 in0.0 mm 0.00 in0.0 mm
06:05 AM 63.4°F17.4°C 52.3°F11.3°C 67% Calm Calm -- 29.84 in1010.5 mb - 0.00 in0.0 mm 0.00 in0.0 mm
06:00 AM 63.3°F17.4°C 52.6°F11.4°C 68% Calm Calm -- 29.84 in1010.5 mb - 0.00 in0.0 mm 0.00 in0.0 mm
05:55 AM 63.3°F17.4°C 53.0°F11.7°C 69% Calm Calm -- 29.84 in1010.5 mb - 0.00 in0.0 mm 0.00 in0.0 mm
05:50 AM 63.5°F17.5°C 53.1°F11.7°C 69% Calm Calm -- 29.83 in1010.2 mb - 0.00 in0.0 mm 0.00 in0.0 mm
05:45 AM 63.6°F17.6°C 53.3°F11.8°C 69% Calm Calm -- 29.83 in1010.2 mb - 0.00 in0.0 mm 0.00 in0.0 mm
05:40 AM 63.9°F17.7°C 53.1°F11.7°C 68% Calm Calm -- 29.83 in1010.2 mb - 0.00 in0.0 mm 0.00 in0.0 mm
05:35 AM 64.1°F17.8°C 52.5°F11.4°C 66% Calm Calm -- 29.83 in1010.2 mb - 0.00 in0.0 mm 0.00 in0.0 mm
05:30 AM 64.2°F17.9°C 52.2°F11.2°C 65% Calm Calm -- 29.82 in1009.8 mb - 0.00 in0.0 mm 0.00 in0.0 mm
05:25 AM 64.3°F17.9°C 51.9°F11.1°C 64% Calm Calm -- 29.82 in1009.8 mb - 0.00 in0.0 mm 0.00 in0.0 mm
05:20 AM 64.3°F17.9°C 52.3°F11.3°C 65% Calm Calm -- 29.82 in1009.8 mb - 0.00 in0.0 mm 0.00 in0.0 mm
05:15 AM 64.3°F17.9°C 52.3°F11.3°C 65% Calm Calm -- 29.82 in1009.8 mb - 0.00 in0.0 mm 0.00 in0.0 mm
05:10 AM 64.4°F18.0°C 52.0°F11.1°C 64% Calm Calm -- 29.82 in1009.8 mb - 0.00 in0.0 mm 0.00 in0.0 mm
05:05 AM 64.6°F18.1°C 52.6°F11.4°C 65% Calm Calm -- 29.82 in1009.8 mb - 0.00 in0.0 mm 0.00 in0.0 mm
05:00 AM 64.7°F18.2°C 52.2°F11.2°C 64% Calm Calm -- 29.82 in1009.8 mb - 0.00 in0.0 mm 0.00 in0.0 mm
04:55 AM 64.8°F18.2°C 52.3°F11.3°C 64% Calm Calm -- 29.81 in1009.5 mb - 0.00 in0.0 mm 0.00 in0.0 mm
04:50 AM 65.0°F18.3°C 52.1°F11.2°C 63% Calm Calm -- 29.81 in1009.5 mb - 0.00 in0.0 mm 0.00 in0.0 mm
04:45 AM 65.1°F18.4°C 52.2°F11.2°C 63% Calm Calm -- 29.81 in1009.5 mb - 0.00 in0.0 mm 0.00 in0.0 mm
04:40 AM 65.1°F18.4°C 52.2°F11.2°C 63% Calm Calm -- 29.81 in1009.5 mb - 0.00 in0.0 mm 0.00 in0.0 mm
04:35 AM 65.2°F18.4°C 51.8°F11.0°C 62% Calm Calm -- 29.81 in1009.5 mb - 0.00 in0.0 mm 0.00 in0.0 mm
04:30 AM 65.4°F18.6°C 52.4°F11.3°C 63% Calm Calm -- 29.81 in1009.5 mb - 0.00 in0.0 mm 0.00 in0.0 mm
04:25 AM 65.5°F18.6°C 52.1°F11.2°C 62% Calm Calm -- 29.81 in1009.5 mb - 0.00 in0.0 mm 0.00 in0.0 mm
04:20 AM 65.7°F18.7°C 51.9°F11.1°C 61% Calm Calm -- 29.81 in1009.5 mb - 0.00 in0.0 mm 0.00 in0.0 mm
04:15 AM 65.8°F18.8°C 52.0°F11.1°C 61% Calm Calm -- 29.80 in1009.1 mb - 0.00 in0.0 mm 0.00 in0.0 mm
04:10 AM 65.9°F18.8°C 51.7°F10.9°C 60% Calm Calm 1.2 mph1.9 kmh 29.80 in1009.1 mb - 0.00 in0.0 mm 0.00 in0.0 mm
04:05 AM 66.1°F18.9°C 51.8°F11.0°C 60% Calm Calm -- 29.80 in1009.1 mb - 0.00 in0.0 mm 0.00 in0.0 mm
04:00 AM 66.3°F19.1°C 51.5°F10.8°C 59% Calm Calm -- 29.80 in1009.1 mb - 0.00 in0.0 mm 0.00 in0.0 mm
03:55 AM 66.5°F19.2°C 51.7°F10.9°C 59% Calm Calm -- 29.80 in1009.1 mb - 0.00 in0.0 mm 0.00 in0.0 mm
03:50 AM 66.5°F19.2°C 51.7°F10.9°C 59% Calm Calm -- 29.80 in1009.1 mb - 0.00 in0.0 mm 0.00 in0.0 mm
03:45 AM 66.6°F19.2°C 51.8°F11.0°C 59% Calm Calm -- 29.80 in1009.1 mb - 0.00 in0.0 mm 0.00 in0.0 mm
03:40 AM 66.7°F19.3°C 51.5°F10.8°C 58% Calm Calm -- 29.80 in1009.1 mb - 0.00 in0.0 mm 0.00 in0.0 mm
03:35 AM 66.8°F19.3°C 51.5°F10.8°C 58% Calm Calm -- 29.80 in1009.1 mb - 0.00 in0.0 mm 0.00 in0.0 mm
03:30 AM 67.0°F19.4°C 51.3°F10.7°C 57% Calm Calm 1.2 mph1.9 kmh 29.80 in1009.1 mb - 0.00 in0.0 mm 0.00 in0.0 mm
03:25 AM 67.1°F19.5°C 51.4°F10.8°C 57% Calm Calm -- 29.80 in1009.1 mb - 0.00 in0.0 mm 0.00 in0.0 mm
03:20 AM 67.2°F19.6°C 51.4°F10.8°C 57% Calm Calm -- 29.80 in1009.1 mb - 0.00 in0.0 mm 0.00 in0.0 mm
03:15 AM 67.3°F19.6°C 51.5°F10.8°C 57% Calm Calm -- 29.80 in1009.1 mb - 0.00 in0.0 mm 0.00 in0.0 mm
03:10 AM 67.5°F19.7°C 51.7°F10.9°C 57% Calm Calm -- 29.80 in1009.1 mb - 0.00 in0.0 mm 0.00 in0.0 mm
03:05 AM 67.7°F19.8°C 52.4°F11.3°C 58% Calm Calm -- 29.80 in1009.1 mb - 0.00 in0.0 mm 0.00 in0.0 mm
03:00 AM 67.7°F19.8°C 51.9°F11.1°C 57% Calm Calm -- 29.80 in1009.1 mb - 0.00 in0.0 mm 0.00 in0.0 mm
02:55 AM 67.9°F19.9°C 52.1°F11.2°C 57% Calm Calm -- 29.80 in1009.1 mb - 0.00 in0.0 mm 0.00 in0.0 mm
02:50 AM 67.9°F19.9°C 52.1°F11.2°C 57% Calm Calm -- 29.80 in1009.1 mb - 0.00 in0.0 mm 0.00 in0.0 mm
02:45 AM 67.9°F19.9°C 52.1°F11.2°C 57% Calm Calm -- 29.80 in1009.1 mb - 0.00 in0.0 mm 0.00 in0.0 mm
02:40 AM 68.1°F20.1°C 52.8°F11.6°C 58% Calm Calm -- 29.80 in1009.1 mb - 0.00 in0.0 mm 0.00 in0.0 mm
02:35 AM 68.3°F20.2°C 52.9°F11.6°C 58% Calm Calm -- 29.80 in1009.1 mb - 0.00 in0.0 mm 0.00 in0.0 mm
02:30 AM 68.5°F20.3°C 52.7°F11.5°C 57% Calm Calm -- 29.80 in1009.1 mb - 0.00 in0.0 mm 0.00 in0.0 mm
02:25 AM 68.6°F20.3°C 52.8°F11.6°C 57% Calm Calm -- 29.79 in1008.8 mb - 0.00 in0.0 mm 0.00 in0.0 mm
02:20 AM 68.8°F20.4°C 52.9°F11.6°C 57% Calm Calm -- 29.80 in1009.1 mb - 0.00 in0.0 mm 0.00 in0.0 mm
02:15 AM 68.9°F20.5°C 53.0°F11.7°C 57% Calm Calm -- 29.80 in1009.1 mb - 0.00 in0.0 mm 0.00 in0.0 mm
02:10 AM 68.9°F20.5°C 53.1°F11.7°C 57% Calm Calm -- 29.80 in1009.1 mb - 0.00 in0.0 mm 0.00 in0.0 mm
02:05 AM 69.0°F20.6°C 53.1°F11.7°C 57% Calm Calm -- 29.80 in1009.1 mb - 0.00 in0.0 mm 0.00 in0.0 mm
02:00 AM 69.1°F20.6°C 53.2°F11.8°C 57% Calm Calm -- 29.80 in1009.1 mb - 0.00 in0.0 mm 0.00 in0.0 mm
01:55 AM 69.2°F20.7°C 52.8°F11.6°C 56% Calm Calm -- 29.79 in1008.8 mb - 0.00 in0.0 mm 0.00 in0.0 mm
01:50 AM 69.4°F20.8°C 52.5°F11.4°C 55% Calm Calm -- 29.79 in1008.8 mb - 0.00 in0.0 mm 0.00 in0.0 mm
01:45 AM 69.4°F20.8°C 52.6°F11.4°C 55% Calm Calm -- 29.79 in1008.8 mb - 0.00 in0.0 mm 0.00 in0.0 mm
01:40 AM 69.6°F20.9°C 52.7°F11.5°C 55% Calm Calm -- 29.79 in1008.8 mb - 0.00 in0.0 mm 0.00 in0.0 mm
01:35 AM 69.7°F20.9°C 52.8°F11.6°C 55% Calm Calm -- 29.80 in1009.1 mb - 0.00 in0.0 mm 0.00 in0.0 mm
01:30 AM 69.9°F21.1°C 53.0°F11.7°C 55% Calm Calm -- 29.80 in1009.1 mb - 0.00 in0.0 mm 0.00 in0.0 mm
01:25 AM 70.1°F21.2°C 53.7°F12.1°C 56% Calm Calm -- 29.80 in1009.1 mb - 0.00 in0.0 mm 0.00 in0.0 mm
01:20 AM 70.4°F21.3°C 53.4°F11.9°C 55% Calm Calm -- 29.80 in1009.1 mb - 0.00 in0.0 mm 0.00 in0.0 mm
01:15 AM 70.6°F21.4°C 53.6°F12.0°C 55% Calm Calm 1.2 mph1.9 kmh 29.80 in1009.1 mb - 0.00 in0.0 mm 0.00 in0.0 mm
01:10 AM 70.5°F21.4°C 53.1°F11.7°C 54% Calm Calm 1.2 mph1.9 kmh 29.80 in1009.1 mb - 0.00 in0.0 mm 0.00 in0.0 mm
01:05 AM 70.7°F21.5°C 53.7°F12.1°C 55% Calm Calm -- 29.80 in1009.1 mb - 0.00 in0.0 mm 0.00 in0.0 mm
01:00 AM 70.6°F21.4°C 53.6°F12.0°C 55% Calm Calm -- 29.80 in1009.1 mb - 0.00 in0.0 mm 0.00 in0.0 mm
12:55 AM 70.8°F21.6°C 54.3°F12.4°C 56% Calm Calm -- 29.80 in1009.1 mb - 0.00 in0.0 mm 0.00 in0.0 mm
12:50 AM 70.8°F21.6°C 54.3°F12.4°C 56% Calm Calm -- 29.80 in1009.1 mb - 0.00 in0.0 mm 0.00 in0.0 mm
12:45 AM 70.7°F21.5°C 54.7°F12.6°C 57% Calm Calm -- 29.80 in1009.1 mb - 0.00 in0.0 mm 0.00 in0.0 mm
12:40 AM 70.9°F21.6°C 55.9°F13.3°C 59% Calm Calm -- 29.80 in1009.1 mb - 0.00 in0.0 mm 0.00 in0.0 mm
12:35 AM 71.3°F21.8°C 56.2°F13.4°C 59% Calm Calm -- 29.80 in1009.1 mb - 0.00 in0.0 mm 0.00 in0.0 mm
12:30 AM 71.6°F22.0°C 55.6°F13.1°C 57% Calm Calm -- 29.80 in1009.1 mb - 0.00 in0.0 mm 0.00 in0.0 mm
12:25 AM 71.8°F22.1°C 55.3°F12.9°C 56% Calm Calm -- 29.79 in1008.8 mb - 0.00 in0.0 mm 0.00 in0.0 mm
12:20 AM 72.0°F22.2°C 55.5°F13.1°C 56% Calm Calm -- 29.79 in1008.8 mb - 0.00 in0.0 mm 0.00 in0.0 mm
12:15 AM 72.3°F22.4°C 55.2°F12.9°C 55% Calm Calm -- 29.79 in1008.8 mb - 0.00 in0.0 mm 0.00 in0.0 mm
12:10 AM 72.6°F22.6°C 55.5°F13.1°C 55% Calm Calm -- 29.79 in1008.8 mb - 0.00 in0.0 mm 0.00 in0.0 mm
12:05 AM 72.8°F22.7°C 55.2°F12.9°C 54% Calm Calm -- 29.79 in1008.8 mb - 0.00 in0.0 mm 0.00 in0.0 mm
12:00 AM 73.0°F22.8°C 55.4°F13.0°C 54% Calm Calm -- 29.79 in1008.8 mb - 0.00 in0.0 mm 0.00 in0.0 mm